<?xml version="1.0" encoding="UTF-8" standalone="no" ?>
<gpx xmlns="http://www.topografix.com/GPX/1/1" xmlns:xsi="http://www.w3.org/2001/XMLSchema-instance" xsi:schemaLocation="http://www.topografix.com/GPX/1/1 http://www.topografix.com/GPX/1/1/gpx.xsd" version="1.1" creator="VisuGPX - https://www.visugpx.com">
  <metadata>
    <name>Balade 2010 11 Blockauss</name>
    <desc><![CDATA[Balade 2010 11 Blockauss Siouville]]></desc>
  </metadata>
  <trk>
    <name><![CDATA[Track 2010-11-10 17:38]]></name>
    <trkseg>
      <trkpt lat="49.5726" lon="-1.84818">
        <ele>51</ele>
        <time>2010-11-10T16:40:37Z</time>
      </trkpt>
      <trkpt lat="49.57339" lon="-1.84808">
        <ele>47</ele>
        <time>2010-11-10T16:41:21Z</time>
      </trkpt>
      <trkpt lat="49.57503" lon="-1.84733">
        <ele>48</ele>
        <time>2010-11-10T16:42:47Z</time>
      </trkpt>
      <trkpt lat="49.57651" lon="-1.84659">
        <ele>46</ele>
        <time>2010-11-10T16:44:14Z</time>
      </trkpt>
      <trkpt lat="49.57863" lon="-1.8451">
        <ele>52</ele>
        <time>2010-11-10T16:44:59Z</time>
      </trkpt>
      <trkpt lat="49.57983" lon="-1.84392">
        <ele>55</ele>
        <time>2010-11-10T16:45:44Z</time>
      </trkpt>
      <trkpt lat="49.58146" lon="-1.84193">
        <ele>58</ele>
        <time>2010-11-10T16:47:12Z</time>
      </trkpt>
      <trkpt lat="49.58132" lon="-1.84162">
        <ele>61</ele>
        <time>2010-11-10T16:50:24Z</time>
      </trkpt>
      <trkpt lat="49.5813" lon="-1.84155">
        <ele>61</ele>
        <time>2010-11-10T16:50:29Z</time>
      </trkpt>
      <trkpt lat="49.58133" lon="-1.84149">
        <ele>61</ele>
        <time>2010-11-10T16:50:35Z</time>
      </trkpt>
      <trkpt lat="49.58136" lon="-1.84144">
        <ele>61</ele>
        <time>2010-11-10T16:50:39Z</time>
      </trkpt>
      <trkpt lat="49.58137" lon="-1.84137">
        <ele>62</ele>
        <time>2010-11-10T16:50:43Z</time>
      </trkpt>
      <trkpt lat="49.58138" lon="-1.8413">
        <ele>62</ele>
        <time>2010-11-10T16:51:01Z</time>
      </trkpt>
      <trkpt lat="49.58135" lon="-1.84137">
        <ele>65</ele>
        <time>2010-11-10T16:51:40Z</time>
      </trkpt>
      <trkpt lat="49.58135" lon="-1.84144">
        <ele>64</ele>
        <time>2010-11-10T16:51:46Z</time>
      </trkpt>
      <trkpt lat="49.58136" lon="-1.84152">
        <ele>64</ele>
        <time>2010-11-10T16:51:53Z</time>
      </trkpt>
      <trkpt lat="49.58136" lon="-1.84159">
        <ele>64</ele>
        <time>2010-11-10T16:51:59Z</time>
      </trkpt>
      <trkpt lat="49.5814" lon="-1.84165">
        <ele>63</ele>
        <time>2010-11-10T16:52:10Z</time>
      </trkpt>
      <trkpt lat="49.58144" lon="-1.84177">
        <ele>59</ele>
        <time>2010-11-10T16:52:28Z</time>
      </trkpt>
      <trkpt lat="49.58144" lon="-1.84185">
        <ele>57</ele>
        <time>2010-11-10T16:52:37Z</time>
      </trkpt>
      <trkpt lat="49.5814" lon="-1.84189">
        <ele>57</ele>
        <time>2010-11-10T16:52:42Z</time>
      </trkpt>
      <trkpt lat="49.58135" lon="-1.8419">
        <ele>55</ele>
        <time>2010-11-10T16:52:59Z</time>
      </trkpt>
      <trkpt lat="49.58128" lon="-1.84196">
        <ele>55</ele>
        <time>2010-11-10T16:53:13Z</time>
      </trkpt>
      <trkpt lat="49.58122" lon="-1.84201">
        <ele>54</ele>
        <time>2010-11-10T16:53:16Z</time>
      </trkpt>
      <trkpt lat="49.58116" lon="-1.84204">
        <ele>54</ele>
        <time>2010-11-10T16:53:18Z</time>
      </trkpt>
      <trkpt lat="49.58111" lon="-1.84206">
        <ele>54</ele>
        <time>2010-11-10T16:53:20Z</time>
      </trkpt>
      <trkpt lat="49.58105" lon="-1.84207">
        <ele>54</ele>
        <time>2010-11-10T16:53:22Z</time>
      </trkpt>
      <trkpt lat="49.58099" lon="-1.84207">
        <ele>54</ele>
        <time>2010-11-10T16:53:24Z</time>
      </trkpt>
      <trkpt lat="49.58093" lon="-1.84207">
        <ele>53</ele>
        <time>2010-11-10T16:53:26Z</time>
      </trkpt>
      <trkpt lat="49.58087" lon="-1.84206">
        <ele>53</ele>
        <time>2010-11-10T16:53:28Z</time>
      </trkpt>
      <trkpt lat="49.58081" lon="-1.84206">
        <ele>53</ele>
        <time>2010-11-10T16:53:30Z</time>
      </trkpt>
      <trkpt lat="49.58074" lon="-1.84206">
        <ele>53</ele>
        <time>2010-11-10T16:53:32Z</time>
      </trkpt>
      <trkpt lat="49.58068" lon="-1.84205">
        <ele>52</ele>
        <time>2010-11-10T16:53:34Z</time>
      </trkpt>
      <trkpt lat="49.58061" lon="-1.84206">
        <ele>52</ele>
        <time>2010-11-10T16:53:36Z</time>
      </trkpt>
      <trkpt lat="49.58055" lon="-1.84206">
        <ele>52</ele>
        <time>2010-11-10T16:53:38Z</time>
      </trkpt>
      <trkpt lat="49.58048" lon="-1.84206">
        <ele>52</ele>
        <time>2010-11-10T16:53:40Z</time>
      </trkpt>
      <trkpt lat="49.58042" lon="-1.84206">
        <ele>51</ele>
        <time>2010-11-10T16:53:42Z</time>
      </trkpt>
      <trkpt lat="49.58035" lon="-1.84206">
        <ele>51</ele>
        <time>2010-11-10T16:53:44Z</time>
      </trkpt>
      <trkpt lat="49.58028" lon="-1.84207">
        <ele>51</ele>
        <time>2010-11-10T16:53:46Z</time>
      </trkpt>
      <trkpt lat="49.58022" lon="-1.84207">
        <ele>51</ele>
        <time>2010-11-10T16:53:48Z</time>
      </trkpt>
      <trkpt lat="49.58014" lon="-1.84208">
        <ele>51</ele>
        <time>2010-11-10T16:53:50Z</time>
      </trkpt>
      <trkpt lat="49.58007" lon="-1.84207">
        <ele>51</ele>
        <time>2010-11-10T16:53:52Z</time>
      </trkpt>
      <trkpt lat="49.58" lon="-1.84206">
        <ele>51</ele>
        <time>2010-11-10T16:53:54Z</time>
      </trkpt>
      <trkpt lat="49.57992" lon="-1.84207">
        <ele>50</ele>
        <time>2010-11-10T16:53:56Z</time>
      </trkpt>
      <trkpt lat="49.57985" lon="-1.84206">
        <ele>50</ele>
        <time>2010-11-10T16:53:59Z</time>
      </trkpt>
      <trkpt lat="49.57977" lon="-1.84206">
        <ele>50</ele>
        <time>2010-11-10T16:54:00Z</time>
      </trkpt>
      <trkpt lat="49.57969" lon="-1.84206">
        <ele>50</ele>
        <time>2010-11-10T16:54:02Z</time>
      </trkpt>
      <trkpt lat="49.57963" lon="-1.84206">
        <ele>50</ele>
        <time>2010-11-10T16:54:04Z</time>
      </trkpt>
      <trkpt lat="49.57955" lon="-1.84206">
        <ele>50</ele>
        <time>2010-11-10T16:54:06Z</time>
      </trkpt>
      <trkpt lat="49.57949" lon="-1.84205">
        <ele>50</ele>
        <time>2010-11-10T16:54:08Z</time>
      </trkpt>
      <trkpt lat="49.57942" lon="-1.84205">
        <ele>50</ele>
        <time>2010-11-10T16:54:10Z</time>
      </trkpt>
      <trkpt lat="49.57934" lon="-1.84204">
        <ele>50</ele>
        <time>2010-11-10T16:54:12Z</time>
      </trkpt>
      <trkpt lat="49.57927" lon="-1.84203">
        <ele>50</ele>
        <time>2010-11-10T16:54:14Z</time>
      </trkpt>
      <trkpt lat="49.5792" lon="-1.84202">
        <ele>49</ele>
        <time>2010-11-10T16:54:16Z</time>
      </trkpt>
      <trkpt lat="49.57913" lon="-1.84202">
        <ele>49</ele>
        <time>2010-11-10T16:54:18Z</time>
      </trkpt>
      <trkpt lat="49.57906" lon="-1.84202">
        <ele>49</ele>
        <time>2010-11-10T16:54:20Z</time>
      </trkpt>
      <trkpt lat="49.579" lon="-1.84202">
        <ele>49</ele>
        <time>2010-11-10T16:54:22Z</time>
      </trkpt>
      <trkpt lat="49.57892" lon="-1.84202">
        <ele>49</ele>
        <time>2010-11-10T16:54:24Z</time>
      </trkpt>
      <trkpt lat="49.57886" lon="-1.84201">
        <ele>49</ele>
        <time>2010-11-10T16:54:26Z</time>
      </trkpt>
      <trkpt lat="49.57879" lon="-1.842">
        <ele>49</ele>
        <time>2010-11-10T16:54:28Z</time>
      </trkpt>
      <trkpt lat="49.57872" lon="-1.842">
        <ele>49</ele>
        <time>2010-11-10T16:54:30Z</time>
      </trkpt>
      <trkpt lat="49.57865" lon="-1.84199">
        <ele>49</ele>
        <time>2010-11-10T16:54:32Z</time>
      </trkpt>
      <trkpt lat="49.57858" lon="-1.84198">
        <ele>49</ele>
        <time>2010-11-10T16:54:34Z</time>
      </trkpt>
      <trkpt lat="49.57851" lon="-1.84196">
        <ele>49</ele>
        <time>2010-11-10T16:54:36Z</time>
      </trkpt>
      <trkpt lat="49.57844" lon="-1.84194">
        <ele>49</ele>
        <time>2010-11-10T16:54:38Z</time>
      </trkpt>
      <trkpt lat="49.57838" lon="-1.84193">
        <ele>49</ele>
        <time>2010-11-10T16:54:40Z</time>
      </trkpt>
      <trkpt lat="49.57832" lon="-1.84192">
        <ele>50</ele>
        <time>2010-11-10T16:54:42Z</time>
      </trkpt>
      <trkpt lat="49.57825" lon="-1.84192">
        <ele>50</ele>
        <time>2010-11-10T16:54:44Z</time>
      </trkpt>
      <trkpt lat="49.57818" lon="-1.84191">
        <ele>50</ele>
        <time>2010-11-10T16:54:46Z</time>
      </trkpt>
      <trkpt lat="49.57811" lon="-1.84189">
        <ele>50</ele>
        <time>2010-11-10T16:54:48Z</time>
      </trkpt>
      <trkpt lat="49.57804" lon="-1.84188">
        <ele>50</ele>
        <time>2010-11-10T16:54:50Z</time>
      </trkpt>
      <trkpt lat="49.57797" lon="-1.84187">
        <ele>49</ele>
        <time>2010-11-10T16:54:52Z</time>
      </trkpt>
      <trkpt lat="49.57791" lon="-1.84186">
        <ele>50</ele>
        <time>2010-11-10T16:54:54Z</time>
      </trkpt>
      <trkpt lat="49.57784" lon="-1.84185">
        <ele>50</ele>
        <time>2010-11-10T16:54:56Z</time>
      </trkpt>
      <trkpt lat="49.57777" lon="-1.84183">
        <ele>50</ele>
        <time>2010-11-10T16:54:58Z</time>
      </trkpt>
      <trkpt lat="49.5777" lon="-1.84182">
        <ele>49</ele>
        <time>2010-11-10T16:55:00Z</time>
      </trkpt>
      <trkpt lat="49.57763" lon="-1.84182">
        <ele>49</ele>
        <time>2010-11-10T16:55:02Z</time>
      </trkpt>
      <trkpt lat="49.57756" lon="-1.84181">
        <ele>49</ele>
        <time>2010-11-10T16:55:04Z</time>
      </trkpt>
      <trkpt lat="49.5775" lon="-1.8418">
        <ele>49</ele>
        <time>2010-11-10T16:55:06Z</time>
      </trkpt>
      <trkpt lat="49.57742" lon="-1.84179">
        <ele>49</ele>
        <time>2010-11-10T16:55:08Z</time>
      </trkpt>
      <trkpt lat="49.57736" lon="-1.84178">
        <ele>49</ele>
        <time>2010-11-10T16:55:10Z</time>
      </trkpt>
      <trkpt lat="49.57729" lon="-1.84177">
        <ele>49</ele>
        <time>2010-11-10T16:55:12Z</time>
      </trkpt>
      <trkpt lat="49.57722" lon="-1.84175">
        <ele>49</ele>
        <time>2010-11-10T16:55:14Z</time>
      </trkpt>
      <trkpt lat="49.57715" lon="-1.84173">
        <ele>49</ele>
        <time>2010-11-10T16:55:16Z</time>
      </trkpt>
      <trkpt lat="49.57708" lon="-1.84172">
        <ele>49</ele>
        <time>2010-11-10T16:55:18Z</time>
      </trkpt>
      <trkpt lat="49.57701" lon="-1.84171">
        <ele>49</ele>
        <time>2010-11-10T16:55:20Z</time>
      </trkpt>
      <trkpt lat="49.57693" lon="-1.8417">
        <ele>49</ele>
        <time>2010-11-10T16:55:22Z</time>
      </trkpt>
      <trkpt lat="49.57687" lon="-1.84168">
        <ele>49</ele>
        <time>2010-11-10T16:55:24Z</time>
      </trkpt>
      <trkpt lat="49.57681" lon="-1.84163">
        <ele>49</ele>
        <time>2010-11-10T16:55:26Z</time>
      </trkpt>
      <trkpt lat="49.57678" lon="-1.84156">
        <ele>49</ele>
        <time>2010-11-10T16:55:28Z</time>
      </trkpt>
      <trkpt lat="49.57676" lon="-1.84146">
        <ele>49</ele>
        <time>2010-11-10T16:55:30Z</time>
      </trkpt>
      <trkpt lat="49.57674" lon="-1.84136">
        <ele>50</ele>
        <time>2010-11-10T16:55:32Z</time>
      </trkpt>
      <trkpt lat="49.57672" lon="-1.84126">
        <ele>50</ele>
        <time>2010-11-10T16:55:34Z</time>
      </trkpt>
      <trkpt lat="49.57671" lon="-1.84116">
        <ele>50</ele>
        <time>2010-11-10T16:55:36Z</time>
      </trkpt>
      <trkpt lat="49.5767" lon="-1.84107">
        <ele>50</ele>
        <time>2010-11-10T16:55:38Z</time>
      </trkpt>
      <trkpt lat="49.57668" lon="-1.84099">
        <ele>51</ele>
        <time>2010-11-10T16:55:40Z</time>
      </trkpt>
      <trkpt lat="49.57666" lon="-1.84092">
        <ele>51</ele>
        <time>2010-11-10T16:55:43Z</time>
      </trkpt>
      <trkpt lat="49.57665" lon="-1.84085">
        <ele>51</ele>
        <time>2010-11-10T16:55:54Z</time>
      </trkpt>
      <trkpt lat="49.57666" lon="-1.84076">
        <ele>56</ele>
        <time>2010-11-10T16:57:24Z</time>
      </trkpt>
      <trkpt lat="49.57663" lon="-1.84069">
        <ele>55</ele>
        <time>2010-11-10T16:57:30Z</time>
      </trkpt>
      <trkpt lat="49.57659" lon="-1.84064">
        <ele>55</ele>
        <time>2010-11-10T16:57:34Z</time>
      </trkpt>
      <trkpt lat="49.57656" lon="-1.84059">
        <ele>55</ele>
        <time>2010-11-10T16:57:38Z</time>
      </trkpt>
      <trkpt lat="49.57652" lon="-1.84052">
        <ele>55</ele>
        <time>2010-11-10T16:57:42Z</time>
      </trkpt>
      <trkpt lat="49.57649" lon="-1.84047">
        <ele>55</ele>
        <time>2010-11-10T16:57:46Z</time>
      </trkpt>
      <trkpt lat="49.57647" lon="-1.84041">
        <ele>54</ele>
        <time>2010-11-10T16:57:50Z</time>
      </trkpt>
      <trkpt lat="49.57644" lon="-1.84034">
        <ele>54</ele>
        <time>2010-11-10T16:58:00Z</time>
      </trkpt>
      <trkpt lat="49.57642" lon="-1.84027">
        <ele>53</ele>
        <time>2010-11-10T16:58:06Z</time>
      </trkpt>
      <trkpt lat="49.57641" lon="-1.8402">
        <ele>53</ele>
        <time>2010-11-10T16:58:11Z</time>
      </trkpt>
      <trkpt lat="49.57639" lon="-1.84012">
        <ele>53</ele>
        <time>2010-11-10T16:58:16Z</time>
      </trkpt>
      <trkpt lat="49.57636" lon="-1.84007">
        <ele>53</ele>
        <time>2010-11-10T16:58:24Z</time>
      </trkpt>
      <trkpt lat="49.57632" lon="-1.84012">
        <ele>52</ele>
        <time>2010-11-10T16:58:30Z</time>
      </trkpt>
      <trkpt lat="49.57627" lon="-1.84017">
        <ele>52</ele>
        <time>2010-11-10T16:58:35Z</time>
      </trkpt>
      <trkpt lat="49.57623" lon="-1.84022">
        <ele>52</ele>
        <time>2010-11-10T16:58:39Z</time>
      </trkpt>
      <trkpt lat="49.5762" lon="-1.84026">
        <ele>52</ele>
        <time>2010-11-10T16:58:43Z</time>
      </trkpt>
      <trkpt lat="49.57616" lon="-1.84031">
        <ele>52</ele>
        <time>2010-11-10T16:58:48Z</time>
      </trkpt>
      <trkpt lat="49.57611" lon="-1.84029">
        <ele>52</ele>
        <time>2010-11-10T16:59:02Z</time>
      </trkpt>
      <trkpt lat="49.57606" lon="-1.84027">
        <ele>52</ele>
        <time>2010-11-10T16:59:05Z</time>
      </trkpt>
      <trkpt lat="49.57602" lon="-1.84032">
        <ele>52</ele>
        <time>2010-11-10T16:59:10Z</time>
      </trkpt>
      <trkpt lat="49.57599" lon="-1.84039">
        <ele>52</ele>
        <time>2010-11-10T16:59:12Z</time>
      </trkpt>
      <trkpt lat="49.57595" lon="-1.84048">
        <ele>52</ele>
        <time>2010-11-10T16:59:15Z</time>
      </trkpt>
      <trkpt lat="49.57591" lon="-1.84053">
        <ele>52</ele>
        <time>2010-11-10T16:59:17Z</time>
      </trkpt>
      <trkpt lat="49.57586" lon="-1.84057">
        <ele>52</ele>
        <time>2010-11-10T16:59:19Z</time>
      </trkpt>
      <trkpt lat="49.57581" lon="-1.84059">
        <ele>51</ele>
        <time>2010-11-10T16:59:21Z</time>
      </trkpt>
      <trkpt lat="49.57575" lon="-1.84061">
        <ele>50</ele>
        <time>2010-11-10T16:59:23Z</time>
      </trkpt>
      <trkpt lat="49.57568" lon="-1.84061">
        <ele>50</ele>
        <time>2010-11-10T16:59:25Z</time>
      </trkpt>
      <trkpt lat="49.57562" lon="-1.84062">
        <ele>50</ele>
        <time>2010-11-10T16:59:27Z</time>
      </trkpt>
      <trkpt lat="49.57555" lon="-1.84063">
        <ele>50</ele>
        <time>2010-11-10T16:59:29Z</time>
      </trkpt>
      <trkpt lat="49.57548" lon="-1.84063">
        <ele>50</ele>
        <time>2010-11-10T16:59:31Z</time>
      </trkpt>
      <trkpt lat="49.57541" lon="-1.84064">
        <ele>49</ele>
        <time>2010-11-10T16:59:33Z</time>
      </trkpt>
      <trkpt lat="49.57534" lon="-1.84064">
        <ele>49</ele>
        <time>2010-11-10T16:59:35Z</time>
      </trkpt>
      <trkpt lat="49.57527" lon="-1.84065">
        <ele>48</ele>
        <time>2010-11-10T16:59:37Z</time>
      </trkpt>
      <trkpt lat="49.5752" lon="-1.84065">
        <ele>48</ele>
        <time>2010-11-10T16:59:39Z</time>
      </trkpt>
      <trkpt lat="49.57514" lon="-1.84066">
        <ele>48</ele>
        <time>2010-11-10T16:59:41Z</time>
      </trkpt>
      <trkpt lat="49.57507" lon="-1.84067">
        <ele>47</ele>
        <time>2010-11-10T16:59:43Z</time>
      </trkpt>
      <trkpt lat="49.575" lon="-1.84067">
        <ele>47</ele>
        <time>2010-11-10T16:59:45Z</time>
      </trkpt>
      <trkpt lat="49.57493" lon="-1.84069">
        <ele>47</ele>
        <time>2010-11-10T16:59:47Z</time>
      </trkpt>
      <trkpt lat="49.57486" lon="-1.84071">
        <ele>47</ele>
        <time>2010-11-10T16:59:49Z</time>
      </trkpt>
      <trkpt lat="49.5748" lon="-1.84075">
        <ele>47</ele>
        <time>2010-11-10T16:59:51Z</time>
      </trkpt>
      <trkpt lat="49.57474" lon="-1.84079">
        <ele>46</ele>
        <time>2010-11-10T16:59:53Z</time>
      </trkpt>
      <trkpt lat="49.57468" lon="-1.84083">
        <ele>46</ele>
        <time>2010-11-10T16:59:55Z</time>
      </trkpt>
      <trkpt lat="49.57461" lon="-1.84088">
        <ele>46</ele>
        <time>2010-11-10T16:59:57Z</time>
      </trkpt>
      <trkpt lat="49.57455" lon="-1.84092">
        <ele>46</ele>
        <time>2010-11-10T16:59:59Z</time>
      </trkpt>
      <trkpt lat="49.57448" lon="-1.84097">
        <ele>46</ele>
        <time>2010-11-10T17:00:01Z</time>
      </trkpt>
      <trkpt lat="49.57442" lon="-1.84101">
        <ele>46</ele>
        <time>2010-11-10T17:00:03Z</time>
      </trkpt>
      <trkpt lat="49.57436" lon="-1.84106">
        <ele>46</ele>
        <time>2010-11-10T17:00:05Z</time>
      </trkpt>
      <trkpt lat="49.5743" lon="-1.84111">
        <ele>46</ele>
        <time>2010-11-10T17:00:07Z</time>
      </trkpt>
      <trkpt lat="49.57424" lon="-1.84115">
        <ele>46</ele>
        <time>2010-11-10T17:00:09Z</time>
      </trkpt>
      <trkpt lat="49.57417" lon="-1.8412">
        <ele>46</ele>
        <time>2010-11-10T17:00:11Z</time>
      </trkpt>
      <trkpt lat="49.57412" lon="-1.84124">
        <ele>46</ele>
        <time>2010-11-10T17:00:13Z</time>
      </trkpt>
      <trkpt lat="49.57405" lon="-1.84128">
        <ele>46</ele>
        <time>2010-11-10T17:00:15Z</time>
      </trkpt>
      <trkpt lat="49.57399" lon="-1.84132">
        <ele>46</ele>
        <time>2010-11-10T17:00:17Z</time>
      </trkpt>
      <trkpt lat="49.57392" lon="-1.84136">
        <ele>46</ele>
        <time>2010-11-10T17:00:19Z</time>
      </trkpt>
      <trkpt lat="49.57386" lon="-1.8414">
        <ele>46</ele>
        <time>2010-11-10T17:00:21Z</time>
      </trkpt>
      <trkpt lat="49.57379" lon="-1.84144">
        <ele>46</ele>
        <time>2010-11-10T17:00:23Z</time>
      </trkpt>
      <trkpt lat="49.57372" lon="-1.84147">
        <ele>45</ele>
        <time>2010-11-10T17:00:25Z</time>
      </trkpt>
      <trkpt lat="49.57365" lon="-1.8415">
        <ele>45</ele>
        <time>2010-11-10T17:00:27Z</time>
      </trkpt>
      <trkpt lat="49.57358" lon="-1.84152">
        <ele>45</ele>
        <time>2010-11-10T17:00:29Z</time>
      </trkpt>
      <trkpt lat="49.57352" lon="-1.84156">
        <ele>45</ele>
        <time>2010-11-10T17:00:31Z</time>
      </trkpt>
      <trkpt lat="49.57346" lon="-1.84158">
        <ele>45</ele>
        <time>2010-11-10T17:00:33Z</time>
      </trkpt>
      <trkpt lat="49.57339" lon="-1.84161">
        <ele>45</ele>
        <time>2010-11-10T17:00:35Z</time>
      </trkpt>
      <trkpt lat="49.57333" lon="-1.84163">
        <ele>45</ele>
        <time>2010-11-10T17:00:37Z</time>
      </trkpt>
      <trkpt lat="49.57326" lon="-1.84166">
        <ele>45</ele>
        <time>2010-11-10T17:00:39Z</time>
      </trkpt>
      <trkpt lat="49.57319" lon="-1.84169">
        <ele>45</ele>
        <time>2010-11-10T17:00:41Z</time>
      </trkpt>
      <trkpt lat="49.57313" lon="-1.84171">
        <ele>46</ele>
        <time>2010-11-10T17:00:43Z</time>
      </trkpt>
      <trkpt lat="49.57307" lon="-1.84174">
        <ele>45</ele>
        <time>2010-11-10T17:00:45Z</time>
      </trkpt>
      <trkpt lat="49.57303" lon="-1.8418">
        <ele>45</ele>
        <time>2010-11-10T17:00:47Z</time>
      </trkpt>
      <trkpt lat="49.57299" lon="-1.84188">
        <ele>46</ele>
        <time>2010-11-10T17:00:49Z</time>
      </trkpt>
      <trkpt lat="49.57297" lon="-1.84195">
        <ele>46</ele>
        <time>2010-11-10T17:00:51Z</time>
      </trkpt>
      <trkpt lat="49.57294" lon="-1.84204">
        <ele>46</ele>
        <time>2010-11-10T17:00:54Z</time>
      </trkpt>
      <trkpt lat="49.57289" lon="-1.8421">
        <ele>47</ele>
        <time>2010-11-10T17:00:57Z</time>
      </trkpt>
      <trkpt lat="49.57284" lon="-1.84215">
        <ele>47</ele>
        <time>2010-11-10T17:01:01Z</time>
      </trkpt>
      <trkpt lat="49.57279" lon="-1.84213">
        <ele>47</ele>
        <time>2010-11-10T17:01:05Z</time>
      </trkpt>
      <trkpt lat="49.57275" lon="-1.84206">
        <ele>48</ele>
        <time>2010-11-10T17:01:08Z</time>
      </trkpt>
      <trkpt lat="49.57272" lon="-1.842">
        <ele>48</ele>
        <time>2010-11-10T17:01:10Z</time>
      </trkpt>
      <trkpt lat="49.57267" lon="-1.84195">
        <ele>48</ele>
        <time>2010-11-10T17:01:12Z</time>
      </trkpt>
      <trkpt lat="49.57263" lon="-1.84192">
        <ele>48</ele>
        <time>2010-11-10T17:01:14Z</time>
      </trkpt>
      <trkpt lat="49.57259" lon="-1.84189">
        <ele>48</ele>
        <time>2010-11-10T17:01:16Z</time>
      </trkpt>
      <trkpt lat="49.57254" lon="-1.84187">
        <ele>48</ele>
        <time>2010-11-10T17:01:18Z</time>
      </trkpt>
      <trkpt lat="49.57249" lon="-1.84186">
        <ele>48</ele>
        <time>2010-11-10T17:01:20Z</time>
      </trkpt>
      <trkpt lat="49.57243" lon="-1.84185">
        <ele>47</ele>
        <time>2010-11-10T17:01:22Z</time>
      </trkpt>
      <trkpt lat="49.57238" lon="-1.84184">
        <ele>48</ele>
        <time>2010-11-10T17:01:24Z</time>
      </trkpt>
      <trkpt lat="49.57232" lon="-1.84183">
        <ele>48</ele>
        <time>2010-11-10T17:01:26Z</time>
      </trkpt>
      <trkpt lat="49.57228" lon="-1.84181">
        <ele>48</ele>
        <time>2010-11-10T17:01:28Z</time>
      </trkpt>
      <trkpt lat="49.57221" lon="-1.84181">
        <ele>48</ele>
        <time>2010-11-10T17:01:31Z</time>
      </trkpt>
      <trkpt lat="49.57215" lon="-1.84179">
        <ele>48</ele>
        <time>2010-11-10T17:01:34Z</time>
      </trkpt>
      <trkpt lat="49.57209" lon="-1.84178">
        <ele>49</ele>
        <time>2010-11-10T17:01:38Z</time>
      </trkpt>
      <trkpt lat="49.57204" lon="-1.84174">
        <ele>49</ele>
        <time>2010-11-10T17:01:41Z</time>
      </trkpt>
      <trkpt lat="49.57199" lon="-1.8417">
        <ele>49</ele>
        <time>2010-11-10T17:01:44Z</time>
      </trkpt>
      <trkpt lat="49.57194" lon="-1.84165">
        <ele>49</ele>
        <time>2010-11-10T17:01:47Z</time>
      </trkpt>
      <trkpt lat="49.5719" lon="-1.84161">
        <ele>50</ele>
        <time>2010-11-10T17:01:51Z</time>
      </trkpt>
      <trkpt lat="49.57186" lon="-1.84157">
        <ele>51</ele>
        <time>2010-11-10T17:01:57Z</time>
      </trkpt>
      <trkpt lat="49.57183" lon="-1.84152">
        <ele>51</ele>
        <time>2010-11-10T17:02:03Z</time>
      </trkpt>
      <trkpt lat="49.57179" lon="-1.84148">
        <ele>52</ele>
        <time>2010-11-10T17:02:08Z</time>
      </trkpt>
      <trkpt lat="49.57173" lon="-1.84143">
        <ele>52</ele>
        <time>2010-11-10T17:02:14Z</time>
      </trkpt>
      <trkpt lat="49.57169" lon="-1.84142">
        <ele>52</ele>
        <time>2010-11-10T17:02:19Z</time>
      </trkpt>
      <trkpt lat="49.57164" lon="-1.8414">
        <ele>52</ele>
        <time>2010-11-10T17:02:25Z</time>
      </trkpt>
      <trkpt lat="49.57158" lon="-1.84135">
        <ele>52</ele>
        <time>2010-11-10T17:02:28Z</time>
      </trkpt>
      <trkpt lat="49.57152" lon="-1.84131">
        <ele>52</ele>
        <time>2010-11-10T17:02:30Z</time>
      </trkpt>
      <trkpt lat="49.57146" lon="-1.84127">
        <ele>52</ele>
        <time>2010-11-10T17:02:32Z</time>
      </trkpt>
      <trkpt lat="49.57139" lon="-1.84125">
        <ele>52</ele>
        <time>2010-11-10T17:02:34Z</time>
      </trkpt>
      <trkpt lat="49.57132" lon="-1.84123">
        <ele>52</ele>
        <time>2010-11-10T17:02:36Z</time>
      </trkpt>
      <trkpt lat="49.57125" lon="-1.84121">
        <ele>52</ele>
        <time>2010-11-10T17:02:38Z</time>
      </trkpt>
      <trkpt lat="49.57118" lon="-1.84119">
        <ele>52</ele>
        <time>2010-11-10T17:02:40Z</time>
      </trkpt>
      <trkpt lat="49.57113" lon="-1.84118">
        <ele>52</ele>
        <time>2010-11-10T17:02:42Z</time>
      </trkpt>
      <trkpt lat="49.57108" lon="-1.84117">
        <ele>52</ele>
        <time>2010-11-10T17:02:44Z</time>
      </trkpt>
      <trkpt lat="49.57102" lon="-1.84115">
        <ele>53</ele>
        <time>2010-11-10T17:02:47Z</time>
      </trkpt>
      <trkpt lat="49.57097" lon="-1.84114">
        <ele>53</ele>
        <time>2010-11-10T17:02:49Z</time>
      </trkpt>
      <trkpt lat="49.57092" lon="-1.84111">
        <ele>53</ele>
        <time>2010-11-10T17:02:51Z</time>
      </trkpt>
      <trkpt lat="49.57088" lon="-1.84106">
        <ele>53</ele>
        <time>2010-11-10T17:02:53Z</time>
      </trkpt>
      <trkpt lat="49.57085" lon="-1.841">
        <ele>53</ele>
        <time>2010-11-10T17:02:55Z</time>
      </trkpt>
      <trkpt lat="49.57083" lon="-1.84092">
        <ele>54</ele>
        <time>2010-11-10T17:02:58Z</time>
      </trkpt>
      <trkpt lat="49.57083" lon="-1.84085">
        <ele>56</ele>
        <time>2010-11-10T17:03:04Z</time>
      </trkpt>
      <trkpt lat="49.57081" lon="-1.84079">
        <ele>57</ele>
        <time>2010-11-10T17:03:12Z</time>
      </trkpt>
      <trkpt lat="49.5708" lon="-1.84072">
        <ele>58</ele>
        <time>2010-11-10T17:03:16Z</time>
      </trkpt>
      <trkpt lat="49.57078" lon="-1.84065">
        <ele>59</ele>
        <time>2010-11-10T17:03:21Z</time>
      </trkpt>
      <trkpt lat="49.57075" lon="-1.8406">
        <ele>62</ele>
        <time>2010-11-10T17:03:36Z</time>
      </trkpt>
      <trkpt lat="49.57067" lon="-1.84054">
        <ele>59</ele>
        <time>2010-11-10T17:04:02Z</time>
      </trkpt>
      <trkpt lat="49.57062" lon="-1.84048">
        <ele>59</ele>
        <time>2010-11-10T17:04:05Z</time>
      </trkpt>
      <trkpt lat="49.57058" lon="-1.84044">
        <ele>59</ele>
        <time>2010-11-10T17:04:07Z</time>
      </trkpt>
      <trkpt lat="49.57053" lon="-1.8404">
        <ele>59</ele>
        <time>2010-11-10T17:04:09Z</time>
      </trkpt>
      <trkpt lat="49.57048" lon="-1.84038">
        <ele>59</ele>
        <time>2010-11-10T17:04:11Z</time>
      </trkpt>
      <trkpt lat="49.57043" lon="-1.84035">
        <ele>58</ele>
        <time>2010-11-10T17:04:13Z</time>
      </trkpt>
      <trkpt lat="49.57036" lon="-1.84039">
        <ele>59</ele>
        <time>2010-11-10T17:04:16Z</time>
      </trkpt>
      <trkpt lat="49.57033" lon="-1.84044">
        <ele>59</ele>
        <time>2010-11-10T17:04:18Z</time>
      </trkpt>
      <trkpt lat="49.57027" lon="-1.8405">
        <ele>59</ele>
        <time>2010-11-10T17:04:20Z</time>
      </trkpt>
      <trkpt lat="49.57023" lon="-1.84056">
        <ele>60</ele>
        <time>2010-11-10T17:04:22Z</time>
      </trkpt>
      <trkpt lat="49.57019" lon="-1.84061">
        <ele>61</ele>
        <time>2010-11-10T17:04:24Z</time>
      </trkpt>
      <trkpt lat="49.57015" lon="-1.84066">
        <ele>61</ele>
        <time>2010-11-10T17:04:26Z</time>
      </trkpt>
      <trkpt lat="49.57011" lon="-1.84071">
        <ele>61</ele>
        <time>2010-11-10T17:04:28Z</time>
      </trkpt>
      <trkpt lat="49.57007" lon="-1.84074">
        <ele>60</ele>
        <time>2010-11-10T17:04:31Z</time>
      </trkpt>
      <trkpt lat="49.57002" lon="-1.84078">
        <ele>60</ele>
        <time>2010-11-10T17:04:34Z</time>
      </trkpt>
      <trkpt lat="49.57003" lon="-1.84087">
        <ele>58</ele>
        <time>2010-11-10T17:04:37Z</time>
      </trkpt>
      <trkpt lat="49.57006" lon="-1.84093">
        <ele>57</ele>
        <time>2010-11-10T17:04:39Z</time>
      </trkpt>
      <trkpt lat="49.5701" lon="-1.84099">
        <ele>56</ele>
        <time>2010-11-10T17:04:41Z</time>
      </trkpt>
      <trkpt lat="49.57015" lon="-1.84107">
        <ele>56</ele>
        <time>2010-11-10T17:04:43Z</time>
      </trkpt>
      <trkpt lat="49.5702" lon="-1.84113">
        <ele>56</ele>
        <time>2010-11-10T17:04:45Z</time>
      </trkpt>
      <trkpt lat="49.57024" lon="-1.84121">
        <ele>56</ele>
        <time>2010-11-10T17:04:47Z</time>
      </trkpt>
      <trkpt lat="49.57029" lon="-1.84129">
        <ele>56</ele>
        <time>2010-11-10T17:04:49Z</time>
      </trkpt>
      <trkpt lat="49.57033" lon="-1.84136">
        <ele>56</ele>
        <time>2010-11-10T17:04:51Z</time>
      </trkpt>
      <trkpt lat="49.57037" lon="-1.84143">
        <ele>57</ele>
        <time>2010-11-10T17:04:53Z</time>
      </trkpt>
      <trkpt lat="49.57041" lon="-1.8415">
        <ele>57</ele>
        <time>2010-11-10T17:04:55Z</time>
      </trkpt>
      <trkpt lat="49.57045" lon="-1.84158">
        <ele>57</ele>
        <time>2010-11-10T17:04:57Z</time>
      </trkpt>
      <trkpt lat="49.57049" lon="-1.84166">
        <ele>57</ele>
        <time>2010-11-10T17:04:59Z</time>
      </trkpt>
      <trkpt lat="49.57054" lon="-1.84174">
        <ele>57</ele>
        <time>2010-11-10T17:05:01Z</time>
      </trkpt>
      <trkpt lat="49.57056" lon="-1.84183">
        <ele>56</ele>
        <time>2010-11-10T17:05:03Z</time>
      </trkpt>
      <trkpt lat="49.57058" lon="-1.84192">
        <ele>57</ele>
        <time>2010-11-10T17:05:05Z</time>
      </trkpt>
      <trkpt lat="49.57054" lon="-1.84197">
        <ele>56</ele>
        <time>2010-11-10T17:05:07Z</time>
      </trkpt>
      <trkpt lat="49.57048" lon="-1.84201">
        <ele>56</ele>
        <time>2010-11-10T17:05:09Z</time>
      </trkpt>
      <trkpt lat="49.57044" lon="-1.84206">
        <ele>55</ele>
        <time>2010-11-10T17:05:11Z</time>
      </trkpt>
      <trkpt lat="49.57039" lon="-1.84213">
        <ele>56</ele>
        <time>2010-11-10T17:05:13Z</time>
      </trkpt>
      <trkpt lat="49.5704" lon="-1.84222">
        <ele>56</ele>
        <time>2010-11-10T17:05:15Z</time>
      </trkpt>
      <trkpt lat="49.57041" lon="-1.84231">
        <ele>56</ele>
        <time>2010-11-10T17:05:17Z</time>
      </trkpt>
      <trkpt lat="49.57042" lon="-1.84239">
        <ele>56</ele>
        <time>2010-11-10T17:05:19Z</time>
      </trkpt>
      <trkpt lat="49.57041" lon="-1.84248">
        <ele>56</ele>
        <time>2010-11-10T17:05:22Z</time>
      </trkpt>
      <trkpt lat="49.57041" lon="-1.84255">
        <ele>56</ele>
        <time>2010-11-10T17:05:24Z</time>
      </trkpt>
      <trkpt lat="49.57041" lon="-1.84263">
        <ele>56</ele>
        <time>2010-11-10T17:05:26Z</time>
      </trkpt>
      <trkpt lat="49.57039" lon="-1.8427">
        <ele>56</ele>
        <time>2010-11-10T17:05:28Z</time>
      </trkpt>
      <trkpt lat="49.57034" lon="-1.84274">
        <ele>57</ele>
        <time>2010-11-10T17:05:30Z</time>
      </trkpt>
      <trkpt lat="49.57028" lon="-1.84277">
        <ele>56</ele>
        <time>2010-11-10T17:05:32Z</time>
      </trkpt>
      <trkpt lat="49.57022" lon="-1.84281">
        <ele>56</ele>
        <time>2010-11-10T17:05:34Z</time>
      </trkpt>
      <trkpt lat="49.57016" lon="-1.84283">
        <ele>55</ele>
        <time>2010-11-10T17:05:36Z</time>
      </trkpt>
      <trkpt lat="49.57009" lon="-1.84285">
        <ele>55</ele>
        <time>2010-11-10T17:05:38Z</time>
      </trkpt>
      <trkpt lat="49.57003" lon="-1.84287">
        <ele>55</ele>
        <time>2010-11-10T17:05:40Z</time>
      </trkpt>
      <trkpt lat="49.56996" lon="-1.84289">
        <ele>55</ele>
        <time>2010-11-10T17:05:42Z</time>
      </trkpt>
      <trkpt lat="49.5699" lon="-1.84291">
        <ele>55</ele>
        <time>2010-11-10T17:05:44Z</time>
      </trkpt>
      <trkpt lat="49.56984" lon="-1.84293">
        <ele>55</ele>
        <time>2010-11-10T17:05:46Z</time>
      </trkpt>
      <trkpt lat="49.56977" lon="-1.84295">
        <ele>55</ele>
        <time>2010-11-10T17:05:48Z</time>
      </trkpt>
      <trkpt lat="49.5697" lon="-1.84298">
        <ele>55</ele>
        <time>2010-11-10T17:05:50Z</time>
      </trkpt>
      <trkpt lat="49.56964" lon="-1.84299">
        <ele>56</ele>
        <time>2010-11-10T17:05:52Z</time>
      </trkpt>
      <trkpt lat="49.56957" lon="-1.84302">
        <ele>56</ele>
        <time>2010-11-10T17:05:54Z</time>
      </trkpt>
      <trkpt lat="49.56951" lon="-1.84304">
        <ele>56</ele>
        <time>2010-11-10T17:05:56Z</time>
      </trkpt>
      <trkpt lat="49.56945" lon="-1.84306">
        <ele>56</ele>
        <time>2010-11-10T17:05:58Z</time>
      </trkpt>
      <trkpt lat="49.5694" lon="-1.84307">
        <ele>56</ele>
        <time>2010-11-10T17:06:00Z</time>
      </trkpt>
      <trkpt lat="49.56934" lon="-1.8431">
        <ele>55</ele>
        <time>2010-11-10T17:06:02Z</time>
      </trkpt>
      <trkpt lat="49.56928" lon="-1.84312">
        <ele>55</ele>
        <time>2010-11-10T17:06:04Z</time>
      </trkpt>
      <trkpt lat="49.56922" lon="-1.84314">
        <ele>55</ele>
        <time>2010-11-10T17:06:06Z</time>
      </trkpt>
      <trkpt lat="49.56915" lon="-1.84313">
        <ele>55</ele>
        <time>2010-11-10T17:06:08Z</time>
      </trkpt>
      <trkpt lat="49.56911" lon="-1.84307">
        <ele>55</ele>
        <time>2010-11-10T17:06:10Z</time>
      </trkpt>
      <trkpt lat="49.56907" lon="-1.843">
        <ele>56</ele>
        <time>2010-11-10T17:06:12Z</time>
      </trkpt>
      <trkpt lat="49.56903" lon="-1.84294">
        <ele>56</ele>
        <time>2010-11-10T17:06:14Z</time>
      </trkpt>
      <trkpt lat="49.569" lon="-1.84287">
        <ele>56</ele>
        <time>2010-11-10T17:06:16Z</time>
      </trkpt>
      <trkpt lat="49.56897" lon="-1.8428">
        <ele>56</ele>
        <time>2010-11-10T17:06:18Z</time>
      </trkpt>
      <trkpt lat="49.56893" lon="-1.84272">
        <ele>56</ele>
        <time>2010-11-10T17:06:20Z</time>
      </trkpt>
      <trkpt lat="49.5689" lon="-1.84265">
        <ele>57</ele>
        <time>2010-11-10T17:06:22Z</time>
      </trkpt>
      <trkpt lat="49.56886" lon="-1.84258">
        <ele>57</ele>
        <time>2010-11-10T17:06:24Z</time>
      </trkpt>
      <trkpt lat="49.56881" lon="-1.84253">
        <ele>57</ele>
        <time>2010-11-10T17:06:26Z</time>
      </trkpt>
      <trkpt lat="49.56874" lon="-1.84252">
        <ele>56</ele>
        <time>2010-11-10T17:06:28Z</time>
      </trkpt>
      <trkpt lat="49.56869" lon="-1.84254">
        <ele>55</ele>
        <time>2010-11-10T17:06:30Z</time>
      </trkpt>
      <trkpt lat="49.56863" lon="-1.84254">
        <ele>55</ele>
        <time>2010-11-10T17:06:32Z</time>
      </trkpt>
      <trkpt lat="49.56857" lon="-1.84254">
        <ele>51</ele>
        <time>2010-11-10T17:06:34Z</time>
      </trkpt>
      <trkpt lat="49.5685" lon="-1.84251">
        <ele>48</ele>
        <time>2010-11-10T17:06:36Z</time>
      </trkpt>
      <trkpt lat="49.56845" lon="-1.8425">
        <ele>48</ele>
        <time>2010-11-10T17:06:38Z</time>
      </trkpt>
      <trkpt lat="49.56839" lon="-1.84251">
        <ele>49</ele>
        <time>2010-11-10T17:06:40Z</time>
      </trkpt>
      <trkpt lat="49.56833" lon="-1.84251">
        <ele>49</ele>
        <time>2010-11-10T17:06:42Z</time>
      </trkpt>
      <trkpt lat="49.56826" lon="-1.84251">
        <ele>49</ele>
        <time>2010-11-10T17:06:44Z</time>
      </trkpt>
      <trkpt lat="49.56818" lon="-1.8425">
        <ele>49</ele>
        <time>2010-11-10T17:06:46Z</time>
      </trkpt>
      <trkpt lat="49.56814" lon="-1.84248">
        <ele>49</ele>
        <time>2010-11-10T17:06:47Z</time>
      </trkpt>
      <trkpt lat="49.56809" lon="-1.84245">
        <ele>49</ele>
        <time>2010-11-10T17:06:49Z</time>
      </trkpt>
      <trkpt lat="49.56802" lon="-1.84245">
        <ele>49</ele>
        <time>2010-11-10T17:06:52Z</time>
      </trkpt>
      <trkpt lat="49.56796" lon="-1.84246">
        <ele>50</ele>
        <time>2010-11-10T17:06:55Z</time>
      </trkpt>
      <trkpt lat="49.56791" lon="-1.8425">
        <ele>50</ele>
        <time>2010-11-10T17:06:57Z</time>
      </trkpt>
      <trkpt lat="49.56787" lon="-1.84253">
        <ele>51</ele>
        <time>2010-11-10T17:06:59Z</time>
      </trkpt>
      <trkpt lat="49.56782" lon="-1.84255">
        <ele>52</ele>
        <time>2010-11-10T17:07:03Z</time>
      </trkpt>
      <trkpt lat="49.56778" lon="-1.8425">
        <ele>54</ele>
        <time>2010-11-10T17:07:14Z</time>
      </trkpt>
      <trkpt lat="49.56775" lon="-1.84245">
        <ele>54</ele>
        <time>2010-11-10T17:07:18Z</time>
      </trkpt>
      <trkpt lat="49.56772" lon="-1.84239">
        <ele>55</ele>
        <time>2010-11-10T17:07:22Z</time>
      </trkpt>
      <trkpt lat="49.56771" lon="-1.84232">
        <ele>56</ele>
        <time>2010-11-10T17:07:27Z</time>
      </trkpt>
    </trkseg>
  </trk>
</gpx>